• Join FlightAware (Why Join?)
  • Login
  • US Flag 
12:39PM EDT


 

Airport Tracker/Info


-or-


 

Live Flight TrackerFlight Track Log ✈ EJA831 ✈ 22-Jun-2013 ✈ KHPN - KLCI

Flight Track Log - Related Links

Times and Time Zones

All times are in EDT time to prevent confusion due to time zone crossing. See the EJA831 flight status page for this flight to view local times or setup timezone preferences in your user account.

Time Position Orientation Groundspeed Altitude Reporting Facility
EDT Latitude Longitude Course Direction KTS MPH feet Rate Location/Type
08:20AM 41.0333 -73.7167 304° West 196 226 2,700  Level New York TRACON
08:21AM 41.0667 -73.7833 304° West 258 297 4,900 3,240 Climbing New York TRACON
08:22AM 41.1333 -73.8333 331° Northwest 270 311 9,200 3,120 Climbing New York TRACON
08:24AM 41.2281 -73.7289 40° Northeast 294 338 13,200 2,520 Climbing Boston Center
08:25AM 41.2647 -73.6219 65° Northeast 331 381 15,900 1,800 Climbing Boston Center
08:26AM 41.3139 -73.4903 64° Northeast 352 405 16,900 540 Climbing Boston Center
08:27AM 41.3792 -73.4139 41° Northeast 347 399 17,000 900 Climbing Boston Center
08:28AM 41.4653 -73.3350 34° Northeast 346 398 18,800 1,500 Climbing Boston Center
08:29AM 41.5264 -73.2553 44° Northeast 356 410 20,000 1,080 Climbing Boston Center
08:30AM 41.6083 -73.1481 44° Northeast 362 417 21,000 480 Climbing Boston Center
08:31AM 41.7086 -73.1214 11° North 357 411 21,000  Level Boston Center
08:32AM 41.8106 -73.1392 353° North 351 404 21,000  Level Boston Center
08:33AM 41.9147 -73.1569 353° North 358 412 21,000  Level Boston Center
08:34AM 42.0186 -73.1750 353° North 366 421 21,000  Level Boston Center
08:35AM 42.1250 -73.1931 353° North 371 427 21,000  Level Boston Center
08:36AM 42.2189 -73.1408 22° Northeast 361 415 21,000  Level Boston Center
08:37AM 42.3031 -73.0381 42° Northeast 360 414 21,000  Level Boston Center
08:38AM 42.3972 -72.9181 43° Northeast 401 461 21,000  Level Boston Center
08:39AM 42.4728 -72.8228 43° Northeast 401 461 21,000  Level Boston Center
08:40AM 42.5564 -72.7219 42° Northeast 408 470 21,000  Level Boston Center
08:41AM 42.6525 -72.6094 41° Northeast 408 470 21,000  Level Boston Center
08:42AM 42.7381 -72.5022 43° Northeast 414 476 21,000 -960 Level Boston Center
08:43AM 42.8233 -72.3947 43° Northeast 414 476 19,100 -1,800 Descending Boston Center
08:44AM 42.8983 -72.2900 46° Northeast 393 452 17,400 -1,860 Descending Boston Center
08:45AM 42.9753 -72.1931 43° Northeast 379 436 15,400 -1,980 Descending Boston Center
08:46AM 43.0500 -72.0992 43° Northeast 374 430 13,500 -1,860 Descending Boston Center
08:47AM 43.1228 -72.0050 43° Northeast 362 417 11,400 -1,140 Descending Boston Center
08:48AM 43.1994 -71.9075 43° Northeast 345 397 11,000 -1,080 Descending Boston Center
08:49AM 43.2697 -71.8156 44° Northeast 326 375 9,300 -1,560 Descending Boston Center
08:50AM 43.3236 -71.7436 44° Northeast 304 350 7,900 -1,500 Descending Boston Center
08:51AM 43.3878 -71.6603 43° Northeast 292 336 6,300 -1,500 Descending Boston Center
08:52AM 43.4372 -71.5967 43° Northeast 280 322 4,900 -900 Descending Boston Center
08:53AM 43.4950 -71.5242 42° Northeast 280 322 4,500 3,000 Descending Boston Center
08:54AM 43.5506 -71.4519 43° Northeast 280 322 11,000 3,240 Climbing Boston Center
08:55AM 43.6083 -71.3792 42° Northeast 280 322 11,000  Level Boston Center
08:56AM 43.6639 -71.3064 43° Northeast 280 322 11,000  Level Boston Center
08:57AM 43.6764 -71.2919 40° Northeast 280 322 11,000  Level Boston Center
08:59AM 43.6764 -71.2919 251° West 280 322 11,000  Level Boston Center
09:01AM 43.5667 -71.4167 224° Southwest  Level FlightAware Approximate
09:08AM 43.5730 -71.4178 224° Southwest  Level Estimated
09:09AM 43.5667 -71.4167 224° Southwest  Level FlightAware Approximate
09:10AM 43.5730 -71.4178 224° Southwest  Level Estimated